Terminal Aerodrome Forecast
Issued by NWS Raleigh/Durham, NC

Home | Current Version | Previous Version | Text Only | Print | Product List | Glossary On
Versions: 1 2 3 4 5 6 7 8 9 10 11 12 13 14 15 16 17 18 19 20 21 22 23 24 25 26 27
000
FTUS42 KRAH 250539
TAFGSO
TAF
KGSO 250539Z 2506/2606 19004KT P6SM BKN060
      TEMPO 2510/2514 4SM BR BKN025
     FM251400 22011KT P6SM BKN050
     FM251600 23014G21KT 3SM -SHRA BR FEW030 BKN040
     FM251800 26018G27KT P6SM BKN050
     FM260000 31015G22KT P6SM SKC=

USA.gov is the U.S. government's official web portal to all federal, state and local government web resources and services.